createdAt,value
2023-05-01T00:00:16.228Z,995.81
2023-05-01T00:01:16.206Z,995.89
2023-05-01T00:02:16.292Z,995.80
2023-05-01T00:03:16.259Z,995.80
2023-05-01T00:04:16.476Z,995.76
2023-05-01T00:05:16.173Z,995.78
2023-05-01T00:06:16.214Z,995.76
2023-05-01T00:07:16.268Z,995.69
2023-05-01T00:08:16.156Z,995.77
2023-05-01T00:09:16.139Z,995.76
2023-05-01T00:10:16.140Z,995.68
2023-05-01T00:11:16.125Z,995.76
2023-05-01T00:12:16.143Z,995.69
2023-05-01T00:13:16.113Z,995.73
2023-05-01T00:14:16.146Z,995.68
2023-05-01T00:15:16.102Z,995.66
2023-05-01T00:16:16.137Z,995.67
2023-05-01T00:17:16.114Z,995.69
2023-05-01T00:18:16.201Z,995.67
2023-05-01T00:19:16.057Z,995.63
2023-05-01T00:20:16.056Z,995.68
2023-05-01T00:21:16.043Z,995.62
2023-05-01T00:22:16.036Z,995.60
2023-05-01T00:23:16.050Z,995.60
2023-05-01T00:24:16.013Z,995.57
2023-05-01T00:25:15.999Z,995.61
2023-05-01T00:26:17.003Z,995.54
2023-05-01T00:27:15.997Z,995.44
2023-05-01T00:28:16.018Z,995.54
2023-05-01T00:29:15.980Z,995.55
2023-05-01T00:30:15.964Z,995.46
2023-05-01T00:31:15.993Z,995.49
2023-05-01T00:32:16.018Z,995.48
2023-05-01T00:33:15.972Z,995.46
2023-05-01T00:34:15.931Z,995.42
2023-05-01T00:35:15.935Z,995.43
2023-05-01T00:36:15.919Z,995.43
2023-05-01T00:37:15.918Z,995.39
2023-05-01T00:38:15.932Z,995.39
2023-05-01T00:39:15.896Z,995.39
2023-05-01T00:40:15.891Z,995.40
2023-05-01T00:41:15.887Z,995.29
2023-05-01T00:42:15.879Z,995.28
2023-05-01T00:43:15.891Z,995.30
2023-05-01T00:44:15.858Z,995.31
2023-05-01T00:45:15.857Z,995.27
2023-05-01T00:46:15.900Z,995.32
2023-05-01T00:47:15.836Z,995.29
2023-05-01T00:48:15.863Z,995.24
2023-05-01T00:49:15.824Z,995.32
2023-05-01T00:50:15.817Z,995.25
2023-05-01T00:51:15.804Z,995.28
2023-05-01T00:52:15.801Z,995.21
2023-05-01T00:53:15.819Z,995.24
2023-05-01T00:54:15.798Z,995.27
2023-05-01T00:55:15.774Z,995.26
2023-05-01T00:56:15.768Z,995.25
2023-05-01T00:57:15.758Z,995.24
2023-05-01T00:58:15.788Z,995.22
2023-05-01T00:59:15.748Z,995.14
2023-05-01T01:00:15.733Z,995.19
2023-05-01T01:01:15.795Z,995.18
2023-05-01T01:02:15.724Z,995.16
2023-05-01T01:03:15.770Z,995.17
2023-05-01T01:04:15.808Z,995.15
2023-05-01T01:05:15.696Z,995.08
2023-05-01T01:06:15.763Z,995.06
2023-05-01T01:07:15.684Z,995.06
2023-05-01T01:08:15.694Z,995.06
2023-05-01T01:09:15.664Z,995.04
2023-05-01T01:10:15.680Z,995.07
2023-05-01T01:11:15.647Z,994.97
2023-05-01T01:12:15.678Z,995.04
2023-05-01T01:13:15.652Z,995.03
2023-05-01T01:14:15.619Z,995.00
2023-05-01T01:15:15.631Z,994.99
2023-05-01T01:16:15.628Z,994.96
2023-05-01T01:17:15.828Z,994.96
2023-05-01T01:18:15.660Z,994.87
2023-05-01T01:19:15.602Z,994.95
2023-05-01T01:20:15.593Z,994.86
2023-05-01T01:21:15.606Z,994.89
2023-05-01T01:22:15.570Z,994.85
2023-05-01T01:23:15.610Z,994.85
2023-05-01T01:24:15.563Z,994.88
2023-05-01T01:25:15.560Z,994.84
2023-05-01T01:26:15.530Z,994.93
2023-05-01T01:27:15.525Z,994.87
2023-05-01T01:28:15.542Z,994.81
2023-05-01T01:29:15.504Z,994.83
2023-05-01T01:30:15.496Z,994.79
2023-05-01T01:31:15.548Z,994.82
2023-05-01T01:32:15.507Z,994.80
2023-05-01T01:33:15.502Z,994.86
2023-05-01T01:34:15.469Z,994.79
2023-05-01T01:35:15.465Z,994.79
2023-05-01T01:36:15.462Z,994.74
2023-05-01T01:37:15.464Z,994.73
2023-05-01T01:38:15.458Z,994.71
2023-05-01T01:39:15.426Z,994.67
2023-05-01T01:40:15.422Z,994.73
2023-05-01T01:41:15.415Z,994.68
2023-05-01T01:42:15.412Z,994.70
2023-05-01T01:43:15.430Z,994.67
2023-05-01T01:44:15.388Z,994.66
2023-05-01T01:45:15.387Z,994.64
2023-05-01T01:46:15.438Z,994.59
2023-05-01T01:47:15.377Z,994.71
2023-05-01T01:48:15.413Z,994.61
2023-05-01T01:49:15.360Z,994.57
2023-05-01T01:50:15.354Z,994.54
2023-05-01T01:51:15.337Z,994.55
2023-05-01T01:52:15.321Z,994.57
2023-05-01T01:53:15.345Z,994.49
2023-05-01T01:54:15.321Z,994.49
2023-05-01T01:55:15.332Z,994.48
2023-05-01T01:56:15.292Z,994.51
2023-05-01T01:57:15.288Z,994.48
2023-05-01T01:58:15.303Z,994.46
2023-05-01T01:59:15.271Z,994.44
2023-05-01T02:00:15.268Z,994.43
2023-05-01T02:01:15.284Z,994.47
2023-05-01T02:02:15.246Z,994.39
2023-05-01T02:03:16.321Z,994.39
2023-05-01T02:04:15.316Z,994.41
2023-05-01T02:05:15.226Z,994.35
2023-05-01T02:06:15.242Z,994.32
2023-05-01T02:07:15.220Z,994.35
2023-05-01T02:08:15.240Z,994.32
2023-05-01T02:09:15.196Z,994.35
2023-05-01T02:10:15.192Z,994.33
2023-05-01T02:11:15.185Z,994.30
2023-05-01T02:12:15.177Z,994.29
2023-05-01T02:13:15.198Z,994.26
2023-05-01T02:14:15.158Z,994.29
2023-05-01T02:15:15.233Z,994.22
2023-05-01T02:16:15.158Z,994.29
2023-05-01T02:17:15.137Z,994.28
2023-05-01T02:18:15.167Z,994.30
2023-05-01T02:19:15.126Z,994.27
2023-05-01T02:20:15.116Z,994.29
2023-05-01T02:21:15.111Z,994.31
2023-05-01T02:22:15.097Z,994.27
2023-05-01T02:23:16.128Z,994.20
2023-05-01T02:24:15.087Z,994.21
2023-05-01T02:25:15.080Z,994.28
2023-05-01T02:26:15.084Z,994.16
2023-05-01T02:27:15.072Z,994.18
2023-05-01T02:28:15.078Z,994.23
2023-05-01T02:29:15.077Z,994.26
2023-05-01T02:30:15.052Z,994.20
2023-05-01T02:31:15.073Z,994.17
2023-05-01T02:32:15.045Z,994.22
2023-05-01T02:33:15.020Z,994.18
2023-05-01T02:34:15.038Z,994.23
2023-05-01T02:35:15.011Z,994.21
2023-05-01T02:36:14.997Z,994.23
2023-05-01T02:37:14.987Z,994.17
2023-05-01T02:38:14.983Z,994.16
2023-05-01T02:39:15.003Z,994.18
2023-05-01T02:40:14.981Z,994.14
2023-05-01T02:41:14.964Z,994.12
2023-05-01T02:42:14.948Z,994.08
2023-05-01T02:43:14.947Z,994.08
2023-05-01T02:44:14.963Z,994.11
2023-05-01T02:45:14.928Z,994.14
2023-05-01T02:46:14.983Z,994.03
2023-05-01T02:47:14.992Z,993.98
2023-05-01T02:48:14.954Z,993.99
2023-05-01T02:49:14.931Z,993.98
2023-05-01T02:50:14.891Z,994.05
2023-05-01T02:51:14.894Z,993.99
2023-05-01T02:52:14.886Z,994.03
2023-05-01T02:53:14.872Z,993.97
2023-05-01T02:54:14.895Z,993.98
2023-05-01T02:55:14.865Z,993.97
2023-05-01T02:56:14.859Z,993.97
2023-05-01T02:57:14.842Z,993.98
2023-05-01T02:58:14.842Z,993.97
2023-05-01T02:59:14.851Z,993.98
2023-05-01T03:00:14.832Z,993.96
2023-05-01T03:01:14.856Z,993.95
2023-05-01T03:02:14.802Z,993.96
2023-05-01T03:03:14.809Z,993.95
2023-05-01T03:04:14.889Z,993.96
2023-05-01T03:05:14.780Z,993.90
2023-05-01T03:06:14.793Z,993.91
2023-05-01T03:07:14.769Z,993.87
2023-05-01T03:08:14.754Z,993.91
2023-05-01T03:09:14.788Z,993.88
2023-05-01T03:10:14.749Z,993.89
2023-05-01T03:11:14.739Z,993.92
2023-05-01T03:12:14.730Z,993.85
2023-05-01T03:13:14.730Z,993.80
2023-05-01T03:14:14.756Z,993.89
2023-05-01T03:15:14.731Z,993.86
2023-05-01T03:16:14.733Z,993.84
2023-05-01T03:17:14.689Z,993.79
2023-05-01T03:18:14.688Z,993.73
2023-05-01T03:19:14.698Z,993.82
2023-05-01T03:20:14.679Z,993.85
2023-05-01T03:21:14.665Z,993.86
2023-05-01T03:22:14.650Z,993.82
2023-05-01T03:23:14.646Z,993.85
2023-05-01T03:24:14.665Z,993.79
2023-05-01T03:25:14.640Z,993.84
2023-05-01T03:26:14.626Z,993.78
2023-05-01T03:27:14.614Z,993.77
2023-05-01T03:28:14.604Z,993.76
2023-05-01T03:29:14.624Z,993.78
2023-05-01T03:30:14.590Z,993.74
2023-05-01T03:31:14.592Z,993.78
2023-05-01T03:32:14.612Z,993.80
2023-05-01T03:33:14.626Z,993.71
2023-05-01T03:34:14.585Z,993.72
2023-05-01T03:35:14.619Z,993.71
2023-05-01T03:36:14.552Z,993.71
2023-05-01T03:37:14.541Z,993.66
2023-05-01T03:38:14.547Z,993.71
2023-05-01T03:39:14.558Z,993.65
2023-05-01T03:40:14.522Z,993.70
2023-05-01T03:41:14.516Z,993.70
2023-05-01T03:42:14.516Z,993.66
2023-05-01T03:43:14.498Z,993.68
2023-05-01T03:44:14.511Z,993.61
2023-05-01T03:45:14.486Z,993.67
2023-05-01T03:46:14.497Z,993.69
2023-05-01T03:47:14.467Z,993.60
2023-05-01T03:48:14.452Z,993.64
2023-05-01T03:49:14.466Z,993.62
2023-05-01T03:50:14.442Z,993.63
2023-05-01T03:51:14.423Z,993.63
2023-05-01T03:52:14.427Z,993.61
2023-05-01T03:53:14.416Z,993.60
2023-05-01T03:54:14.431Z,993.62
2023-05-01T03:55:14.401Z,993.63
2023-05-01T03:56:14.403Z,993.59
2023-05-01T03:57:14.439Z,993.62
2023-05-01T03:58:14.392Z,993.61
2023-05-01T03:59:14.403Z,993.63
2023-05-01T04:00:14.363Z,993.61
2023-05-01T04:01:14.354Z,993.59
2023-05-01T04:02:14.370Z,993.57
2023-05-01T04:03:14.426Z,993.58
2023-05-01T04:04:14.409Z,993.65
2023-05-01T04:05:14.329Z,993.63
2023-05-01T04:06:14.350Z,993.58
2023-05-01T04:07:14.320Z,993.63
2023-05-01T04:08:14.297Z,993.55
2023-05-01T04:09:14.328Z,993.65
2023-05-01T04:10:14.284Z,993.56
2023-05-01T04:11:14.286Z,993.54
2023-05-01T04:12:14.272Z,993.55
2023-05-01T04:13:14.265Z,993.59
2023-05-01T04:14:14.282Z,993.59
2023-05-01T04:15:15.553Z,993.55
2023-05-01T04:16:15.319Z,993.52
2023-05-01T04:17:14.237Z,993.55
2023-05-01T04:18:14.324Z,993.57
2023-05-01T04:19:14.396Z,993.55
2023-05-01T04:20:14.216Z,993.57
2023-05-01T04:21:14.233Z,993.54
2023-05-01T04:22:14.190Z,993.59
2023-05-01T04:23:14.179Z,993.60
2023-05-01T04:24:14.216Z,993.58
2023-05-01T04:25:14.193Z,993.58
2023-05-01T04:26:14.167Z,993.61
2023-05-01T04:27:14.154Z,993.62
2023-05-01T04:28:14.134Z,993.57
2023-05-01T04:29:14.145Z,993.59
2023-05-01T04:30:14.161Z,993.54
2023-05-01T04:31:14.120Z,993.55
2023-05-01T04:32:14.117Z,993.57
2023-05-01T04:33:14.103Z,993.52
2023-05-01T04:34:14.094Z,993.57
2023-05-01T04:35:14.112Z,993.57
2023-05-01T04:36:14.073Z,993.53
2023-05-01T04:37:14.066Z,993.56
2023-05-01T04:38:14.059Z,993.55
2023-05-01T04:39:14.050Z,993.51
2023-05-01T04:40:14.064Z,993.57
2023-05-01T04:41:14.031Z,993.46
2023-05-01T04:42:14.032Z,993.50
2023-05-01T04:43:14.015Z,993.47
2023-05-01T04:44:14.012Z,993.50
2023-05-01T04:45:14.045Z,993.54
2023-05-01T04:46:14.023Z,993.53
2023-05-01T04:47:13.991Z,993.52
2023-05-01T04:48:13.993Z,993.51
2023-05-01T04:49:13.977Z,993.53
2023-05-01T04:50:13.991Z,993.53
2023-05-01T04:51:13.957Z,993.63
2023-05-01T04:52:13.949Z,993.51
2023-05-01T04:53:13.934Z,993.55
2023-05-01T04:54:13.926Z,993.59
2023-05-01T04:55:13.954Z,993.59
2023-05-01T04:56:13.933Z,993.55
2023-05-01T04:57:13.914Z,993.56
2023-05-01T04:58:13.905Z,993.57
2023-05-01T04:59:13.891Z,993.61
2023-05-01T05:00:13.917Z,993.59
2023-05-01T05:01:13.901Z,993.58
2023-05-01T05:02:13.918Z,993.61
2023-05-01T05:03:13.921Z,993.61
2023-05-01T05:04:13.883Z,993.61
2023-05-01T05:05:13.877Z,993.65
2023-05-01T05:06:13.877Z,993.59
2023-05-01T05:07:13.835Z,993.63
2023-05-01T05:08:13.821Z,993.65
2023-05-01T05:09:15.377Z,993.64
2023-05-01T05:10:13.829Z,993.64
2023-05-01T05:11:13.815Z,993.63
2023-05-01T05:12:13.788Z,993.60
2023-05-01T05:13:13.798Z,993.65
2023-05-01T05:14:13.782Z,993.55
2023-05-01T05:15:13.799Z,993.63
2023-05-01T05:16:13.819Z,993.69
2023-05-01T05:17:13.752Z,993.63
2023-05-01T05:18:13.781Z,993.63
2023-05-01T05:19:13.740Z,993.63
2023-05-01T05:20:13.757Z,993.61
2023-05-01T05:21:13.721Z,993.69
2023-05-01T05:22:13.708Z,993.55
2023-05-01T05:23:13.707Z,993.68
2023-05-01T05:24:13.694Z,993.63
2023-05-01T05:25:13.731Z,993.66
2023-05-01T05:26:13.701Z,993.69
2023-05-01T05:27:13.725Z,993.61
2023-05-01T05:28:13.659Z,993.64
2023-05-01T05:29:13.653Z,993.53
2023-05-01T05:30:13.669Z,993.59
2023-05-01T05:31:13.647Z,993.62
2023-05-01T05:32:13.685Z,993.56
2023-05-01T05:33:13.652Z,993.60
2023-05-01T05:34:13.622Z,993.55
2023-05-01T05:35:13.643Z,993.57
2023-05-01T05:36:13.614Z,993.65
2023-05-01T05:37:13.587Z,993.59
2023-05-01T05:38:13.590Z,993.62
2023-05-01T05:39:13.579Z,993.55
2023-05-01T05:40:13.618Z,993.57
2023-05-01T05:41:13.565Z,993.53
2023-05-01T05:42:13.551Z,993.50
2023-05-01T05:43:13.551Z,993.63
2023-05-01T05:44:13.543Z,993.54
2023-05-01T05:45:13.553Z,993.59
2023-05-01T05:46:13.534Z,993.53
2023-05-01T05:47:13.519Z,993.53
2023-05-01T05:48:13.598Z,993.51
2023-05-01T05:49:13.510Z,993.51
2023-05-01T05:50:13.532Z,993.51
2023-05-01T05:51:13.497Z,993.51
2023-05-01T05:52:13.481Z,993.48
2023-05-01T05:53:13.568Z,993.55
2023-05-01T05:54:13.473Z,993.55
2023-05-01T05:55:13.482Z,993.50
2023-05-01T05:56:13.461Z,993.46
2023-05-01T05:57:13.445Z,993.47
2023-05-01T05:58:13.433Z,993.44
2023-05-01T05:59:14.817Z,993.45
2023-05-01T06:00:13.440Z,993.53
2023-05-01T06:01:13.413Z,993.50
2023-05-01T06:02:13.438Z,993.45
2023-05-01T06:03:13.580Z,993.44
2023-05-01T06:04:13.394Z,993.46
2023-05-01T06:05:13.472Z,993.53
2023-05-01T06:06:13.437Z,993.49
2023-05-01T06:07:13.358Z,993.46
2023-05-01T06:08:13.365Z,993.45
2023-05-01T06:09:13.341Z,993.55
2023-05-01T06:10:13.360Z,993.43
2023-05-01T06:11:13.332Z,993.43
2023-05-01T06:12:13.327Z,993.44
2023-05-01T06:13:14.718Z,993.46
2023-05-01T06:14:13.303Z,993.38
2023-05-01T06:15:13.329Z,993.39
2023-05-01T06:16:13.397Z,993.36
2023-05-01T06:17:13.283Z,993.37
2023-05-01T06:18:13.372Z,993.37
2023-05-01T06:19:13.262Z,993.40
2023-05-01T06:20:13.294Z,993.34
2023-05-01T06:21:13.255Z,993.35
2023-05-01T06:22:13.236Z,993.29
2023-05-01T06:23:13.224Z,993.34
2023-05-01T06:24:13.230Z,993.29
2023-05-01T06:25:13.241Z,993.32
2023-05-01T06:26:13.219Z,993.27
2023-05-01T06:27:13.202Z,993.30
2023-05-01T06:28:13.187Z,993.33
2023-05-01T06:29:13.185Z,993.39
2023-05-01T06:30:13.196Z,993.27
2023-05-01T06:31:13.214Z,993.33
2023-05-01T06:32:13.155Z,993.31
2023-05-01T06:33:13.194Z,993.34
2023-05-01T06:34:13.147Z,993.36
2023-05-01T06:35:13.165Z,993.30
2023-05-01T06:36:13.125Z,993.32
2023-05-01T06:37:13.127Z,993.30
2023-05-01T06:38:13.104Z,993.28
2023-05-01T06:39:13.094Z,993.34
2023-05-01T06:40:13.125Z,993.26
2023-05-01T06:41:13.093Z,993.29
2023-05-01T06:42:13.077Z,993.29
2023-05-01T06:43:13.069Z,993.25
2023-05-01T06:44:13.062Z,993.24
2023-05-01T06:45:13.100Z,993.21
2023-05-01T06:46:13.107Z,993.24
2023-05-01T06:47:13.115Z,993.19
2023-05-01T06:48:13.093Z,993.23
2023-05-01T06:49:13.014Z,993.15
2023-05-01T06:50:13.045Z,993.22
2023-05-01T06:51:13.020Z,993.24
2023-05-01T06:52:12.994Z,993.20
2023-05-01T06:53:12.981Z,993.17
2023-05-01T06:54:12.990Z,993.22
2023-05-01T06:55:13.155Z,993.17
2023-05-01T06:56:12.979Z,993.16
2023-05-01T06:57:12.964Z,993.16
2023-05-01T06:58:23.443Z,993.19
2023-05-01T06:59:14.950Z,993.22
2023-05-01T07:00:12.945Z,993.20
2023-05-01T07:01:13.016Z,993.15
2023-05-01T07:02:12.965Z,993.17
2023-05-01T07:03:12.972Z,993.17
2023-05-01T07:04:12.921Z,993.17
2023-05-01T07:05:12.909Z,993.20
2023-05-01T07:06:12.947Z,993.17
2023-05-01T07:07:12.889Z,993.17
2023-05-01T07:08:13.723Z,993.12
2023-05-01T07:09:12.868Z,993.11
2023-05-01T07:10:12.865Z,993.20
2023-05-01T07:11:12.877Z,993.18
2023-05-01T07:12:12.842Z,993.16
2023-05-01T07:13:12.840Z,993.21
2023-05-01T07:14:12.837Z,993.13
2023-05-01T07:15:12.827Z,993.12
2023-05-01T07:16:12.862Z,993.21
2023-05-01T07:17:12.808Z,993.21
2023-05-01T07:18:12.834Z,993.13
2023-05-01T07:19:12.787Z,993.11
2023-05-01T07:20:12.787Z,993.07
2023-05-01T07:21:12.815Z,993.11
2023-05-01T07:22:12.767Z,993.14
2023-05-01T07:23:12.753Z,993.10
2023-05-01T07:24:12.745Z,993.18
2023-05-01T07:25:12.751Z,993.08
2023-05-01T07:26:12.757Z,993.07
2023-05-01T07:27:12.721Z,993.13
2023-05-01T07:28:12.728Z,993.04
2023-05-01T07:29:12.713Z,993.03
2023-05-01T07:30:12.713Z,993.01
2023-05-01T07:31:12.725Z,992.99
2023-05-01T07:32:12.727Z,993.00
2023-05-01T07:33:12.739Z,992.99
2023-05-01T07:34:12.671Z,992.91
2023-05-01T07:35:12.672Z,992.97
2023-05-01T07:36:12.692Z,992.93
2023-05-01T07:37:12.646Z,992.94
2023-05-01T07:38:12.636Z,992.87
2023-05-01T07:39:12.635Z,992.91
2023-05-01T07:40:12.622Z,992.95
2023-05-01T07:41:12.638Z,992.91
2023-05-01T07:42:12.613Z,992.99
2023-05-01T07:43:12.600Z,992.96
2023-05-01T07:44:12.598Z,992.88
2023-05-01T07:45:12.588Z,992.92
2023-05-01T07:46:12.648Z,992.95
2023-05-01T07:47:12.580Z,992.85
2023-05-01T07:48:12.598Z,992.83
2023-05-01T07:49:12.567Z,992.82
2023-05-01T07:50:12.552Z,992.83
2023-05-01T07:51:12.563Z,992.75
2023-05-01T07:52:12.551Z,992.77
2023-05-01T07:53:12.524Z,992.75
2023-05-01T07:54:12.523Z,992.80
2023-05-01T07:55:12.514Z,992.74
2023-05-01T07:56:12.529Z,992.70
2023-05-01T07:57:12.523Z,992.77
2023-05-01T07:58:12.492Z,992.70
2023-05-01T07:59:13.486Z,992.68
2023-05-01T08:00:12.488Z,992.70
2023-05-01T08:01:12.495Z,992.68
2023-05-01T08:02:12.502Z,992.69
2023-05-01T08:03:12.592Z,992.71
2023-05-01T08:04:12.602Z,992.65
2023-05-01T08:05:12.445Z,992.64
2023-05-01T08:06:12.540Z,992.54
2023-05-01T08:07:12.443Z,992.59
2023-05-01T08:08:12.421Z,992.56
2023-05-01T08:09:12.414Z,992.56
2023-05-01T08:10:12.411Z,992.57
2023-05-01T08:11:12.418Z,992.50
2023-05-01T08:12:12.393Z,992.58
2023-05-01T08:13:12.385Z,992.53
2023-05-01T08:14:12.371Z,992.52
2023-05-01T08:15:12.381Z,992.56
2023-05-01T08:16:12.515Z,992.48
2023-05-01T08:17:12.358Z,992.51
2023-05-01T08:18:12.363Z,992.45
2023-05-01T08:19:12.341Z,992.48
2023-05-01T08:20:12.330Z,992.43
2023-05-01T08:21:12.341Z,992.43
2023-05-01T08:22:12.309Z,992.44
2023-05-01T08:23:12.308Z,992.39
2023-05-01T08:24:12.297Z,992.45
2023-05-01T08:25:12.286Z,992.44
2023-05-01T08:26:12.309Z,992.43
2023-05-01T08:27:12.271Z,992.43
2023-05-01T08:28:12.258Z,992.49
2023-05-01T08:29:12.249Z,992.51
2023-05-01T08:30:12.248Z,992.46
2023-05-01T08:31:12.336Z,992.48
2023-05-01T08:32:12.227Z,992.44
2023-05-01T08:33:12.253Z,992.45
2023-05-01T08:34:12.215Z,992.42
2023-05-01T08:35:12.215Z,992.47
2023-05-01T08:36:12.227Z,992.40
2023-05-01T08:37:12.207Z,992.40
2023-05-01T08:38:12.189Z,992.38
2023-05-01T08:39:12.177Z,992.32
2023-05-01T08:40:12.178Z,992.41
2023-05-01T08:41:12.178Z,992.39
2023-05-01T08:42:13.156Z,992.33
2023-05-01T08:43:12.153Z,992.36
2023-05-01T08:44:12.137Z,992.37
2023-05-01T08:45:12.141Z,992.37
2023-05-01T08:46:12.342Z,992.32
2023-05-01T08:47:12.248Z,992.24
2023-05-01T08:48:12.164Z,992.32
2023-05-01T08:49:12.101Z,992.31
2023-05-01T08:50:12.156Z,992.29
2023-05-01T08:51:12.138Z,992.34
2023-05-01T08:52:12.100Z,992.28
2023-05-01T08:53:12.073Z,992.27
2023-05-01T08:54:12.148Z,992.26
2023-05-01T08:55:12.048Z,992.28
2023-05-01T08:56:12.069Z,992.33
2023-05-01T08:57:12.031Z,992.34
2023-05-01T08:58:12.033Z,992.26
2023-05-01T08:59:12.018Z,992.32
2023-05-01T09:00:12.015Z,992.37
2023-05-01T09:01:12.056Z,992.28
2023-05-01T09:02:12.236Z,992.27
2023-05-01T09:03:12.107Z,992.23
2023-05-01T09:04:12.132Z,992.29
2023-05-01T09:05:11.980Z,992.28
2023-05-01T09:06:12.051Z,992.25
2023-05-01T09:07:11.966Z,992.24
2023-05-01T09:08:11.960Z,992.25
2023-05-01T09:09:11.949Z,992.17
2023-05-01T09:10:11.939Z,992.13
2023-05-01T09:11:11.955Z,992.14
2023-05-01T09:12:11.962Z,992.11
2023-05-01T09:13:11.922Z,992.17
2023-05-01T09:14:11.908Z,992.16
2023-05-01T09:15:11.906Z,992.10
2023-05-01T09:16:11.979Z,992.12
2023-05-01T09:17:11.879Z,992.11
2023-05-01T09:18:11.912Z,992.12
2023-05-01T09:19:11.872Z,992.17
2023-05-01T09:20:11.872Z,992.15
2023-05-01T09:21:11.882Z,992.13
2023-05-01T09:22:11.846Z,992.08
2023-05-01T09:23:11.839Z,992.06
2023-05-01T09:24:11.832Z,992.13
2023-05-01T09:25:11.830Z,992.10
2023-05-01T09:26:11.859Z,992.08
2023-05-01T09:27:11.812Z,992.03
2023-05-01T09:28:11.821Z,992.00
2023-05-01T09:29:11.813Z,992.04
2023-05-01T09:30:11.799Z,992.04
2023-05-01T09:31:11.812Z,991.99
2023-05-01T09:32:11.876Z,992.01
2023-05-01T09:33:11.941Z,992.03
2023-05-01T09:34:11.762Z,992.01
2023-05-01T09:35:11.762Z,992.06
2023-05-01T09:36:11.751Z,991.99
2023-05-01T09:37:11.773Z,992.00
2023-05-01T09:38:11.734Z,992.00
2023-05-01T09:39:11.733Z,991.92
2023-05-01T09:40:11.724Z,991.92
2023-05-01T09:41:11.716Z,991.89
2023-05-01T09:42:11.727Z,991.84
2023-05-01T09:43:11.969Z,991.89
2023-05-01T09:44:12.686Z,991.91
2023-05-01T09:45:11.676Z,991.86
2023-05-01T09:46:11.738Z,991.84
2023-05-01T09:47:11.696Z,991.83
2023-05-01T09:48:11.922Z,991.80
2023-05-01T09:49:11.649Z,991.76
2023-05-01T09:50:11.655Z,991.77
2023-05-01T09:51:11.637Z,991.84
2023-05-01T09:52:11.657Z,991.83
2023-05-01T09:53:11.648Z,991.80
2023-05-01T09:54:11.613Z,991.75
2023-05-01T09:55:11.624Z,991.83
2023-05-01T09:56:11.597Z,991.84
2023-05-01T09:57:11.619Z,991.88
2023-05-01T09:58:11.582Z,991.85
2023-05-01T09:59:11.578Z,991.75
2023-05-01T10:00:11.571Z,991.80
2023-05-01T10:01:11.616Z,991.76
2023-05-01T10:02:11.636Z,991.75
2023-05-01T10:03:11.720Z,991.75
2023-05-01T10:04:11.599Z,991.66
2023-05-01T10:05:11.532Z,991.71
2023-05-01T10:06:11.581Z,991.73
2023-05-01T10:07:11.540Z,991.77
2023-05-01T10:08:11.535Z,991.82
2023-05-01T10:09:11.500Z,991.75
2023-05-01T10:10:11.489Z,991.78
2023-05-01T10:11:11.505Z,991.71
2023-05-01T10:12:11.502Z,991.68
2023-05-01T10:13:11.463Z,991.65
2023-05-01T10:14:11.470Z,991.65
2023-05-01T10:15:23.914Z,991.71
2023-05-01T10:16:13.482Z,991.63
2023-05-01T10:17:11.632Z,991.66
2023-05-01T10:18:11.479Z,991.61
2023-05-01T10:19:11.425Z,991.63
2023-05-01T10:20:11.414Z,991.57
2023-05-01T10:21:11.408Z,991.63
2023-05-01T10:22:11.432Z,991.62
2023-05-01T10:23:11.391Z,991.58
2023-05-01T10:24:11.416Z,991.57
2023-05-01T10:25:11.374Z,991.54
2023-05-01T10:26:11.366Z,991.59
2023-05-01T10:27:11.382Z,991.50
2023-05-01T10:28:11.358Z,991.62
2023-05-01T10:29:11.341Z,991.59
2023-05-01T10:30:11.402Z,991.56
2023-05-01T10:31:11.383Z,991.56
2023-05-01T10:32:11.350Z,991.55
2023-05-01T10:33:11.396Z,991.54
2023-05-01T10:34:11.322Z,991.52
2023-05-01T10:35:11.290Z,991.47
2023-05-01T10:36:11.286Z,991.51
2023-05-01T10:37:11.328Z,991.51
2023-05-01T10:38:11.269Z,991.48
2023-05-01T10:39:11.254Z,991.54
2023-05-01T10:40:11.248Z,991.44
2023-05-01T10:41:11.243Z,991.50
2023-05-01T10:42:11.611Z,991.46
2023-05-01T10:43:11.231Z,991.45
2023-05-01T10:44:11.219Z,991.40
2023-05-01T10:45:11.237Z,991.35
2023-05-01T10:46:11.224Z,991.32
2023-05-01T10:47:11.222Z,991.39
2023-05-01T10:48:11.258Z,991.38
2023-05-01T10:49:11.189Z,991.43
2023-05-01T10:50:11.191Z,991.39
2023-05-01T10:51:11.194Z,991.34
2023-05-01T10:52:11.184Z,991.30
2023-05-01T10:53:11.159Z,991.28
2023-05-01T10:54:11.148Z,991.31
2023-05-01T10:55:11.139Z,991.30
2023-05-01T10:56:11.131Z,991.32
2023-05-01T10:57:11.145Z,991.32
2023-05-01T10:58:11.109Z,991.30
2023-05-01T10:59:11.105Z,991.32
2023-05-01T11:00:11.100Z,991.31
2023-05-01T11:01:11.088Z,991.29
2023-05-01T11:02:11.141Z,991.29
2023-05-01T11:03:11.104Z,991.30
2023-05-01T11:04:11.065Z,991.29
2023-05-01T11:05:11.109Z,991.31
2023-05-01T11:06:11.187Z,991.23
2023-05-01T11:07:11.330Z,991.25
2023-05-01T11:08:11.032Z,991.18
2023-05-01T11:09:11.030Z,991.20
2023-05-01T11:10:11.026Z,991.22
2023-05-01T11:11:11.016Z,991.20
2023-05-01T11:12:11.044Z,991.20
2023-05-01T11:13:11.019Z,991.21
2023-05-01T11:14:10.996Z,991.15
2023-05-01T11:15:10.979Z,991.18
2023-05-01T11:16:10.999Z,991.15
2023-05-01T11:17:11.006Z,991.12
2023-05-01T11:18:11.052Z,991.10
2023-05-01T11:19:10.956Z,991.08
2023-05-01T11:20:10.971Z,991.16
2023-05-01T11:21:10.934Z,991.11
2023-05-01T11:22:10.961Z,991.09
2023-05-01T11:23:10.924Z,991.07
2023-05-01T11:24:10.926Z,991.05
2023-05-01T11:25:10.904Z,991.06
2023-05-01T11:26:10.901Z,991.09
2023-05-01T11:27:10.917Z,991.08
2023-05-01T11:28:10.889Z,991.08
2023-05-01T11:29:10.886Z,991.05
2023-05-01T11:30:10.873Z,991.04
2023-05-01T11:31:10.862Z,991.04
2023-05-01T11:32:10.955Z,991.04
2023-05-01T11:33:11.226Z,991.09
2023-05-01T11:34:10.844Z,991.02
2023-05-01T11:35:10.832Z,991.05
2023-05-01T11:36:10.831Z,990.98
2023-05-01T11:37:10.843Z,990.98
2023-05-01T11:38:10.809Z,991.06
2023-05-01T11:39:10.804Z,991.01
2023-05-01T11:40:10.837Z,990.99
2023-05-01T11:41:10.784Z,991.04
2023-05-01T11:42:10.900Z,991.01
2023-05-01T11:43:10.768Z,991.08
2023-05-01T11:44:10.768Z,991.08
2023-05-01T11:45:10.785Z,991.05
2023-05-01T11:46:10.784Z,990.93
2023-05-01T11:47:10.768Z,991.03
2023-05-01T11:48:10.803Z,990.96
2023-05-01T11:49:10.723Z,991.08
2023-05-01T11:50:10.744Z,991.01
2023-05-01T11:51:10.876Z,990.99
2023-05-01T11:52:10.732Z,991.01
2023-05-01T11:53:10.685Z,990.97
2023-05-01T11:54:10.845Z,990.99
2023-05-01T11:55:10.706Z,991.01
2023-05-01T11:56:19.489Z,991.00
2023-05-01T11:57:12.691Z,990.93
2023-05-01T11:58:10.675Z,991.01
2023-05-01T11:59:10.657Z,990.97
2023-05-01T12:00:10.640Z,990.97
2023-05-01T12:01:10.630Z,990.87
2023-05-01T12:02:10.665Z,990.92
2023-05-01T12:03:10.779Z,990.92
2023-05-01T12:04:10.671Z,990.94
2023-05-01T12:05:10.600Z,990.91
2023-05-01T12:06:10.634Z,990.87
2023-05-01T12:07:10.690Z,990.90
2023-05-01T12:08:10.588Z,990.88
2023-05-01T12:09:10.572Z,990.89
2023-05-01T12:10:10.560Z,990.88
2023-05-01T12:11:10.552Z,990.94
2023-05-01T12:12:10.572Z,990.91
2023-05-01T12:13:10.540Z,990.91
2023-05-01T12:14:10.552Z,990.89
2023-05-01T12:15:10.532Z,990.86
2023-05-01T12:16:10.518Z,990.91
2023-05-01T12:17:10.581Z,990.87
2023-05-01T12:18:10.558Z,990.86
2023-05-01T12:19:10.495Z,990.83
2023-05-01T12:20:10.489Z,990.83
2023-05-01T12:21:10.482Z,990.77
2023-05-01T12:22:10.523Z,990.81
2023-05-01T12:23:10.467Z,990.81
2023-05-01T12:24:10.501Z,990.84
2023-05-01T12:25:10.454Z,990.84
2023-05-01T12:26:10.443Z,990.79
2023-05-01T12:27:10.468Z,990.78
2023-05-01T12:28:10.428Z,990.77